createdAt,value
2019-05-11T00:13:17.781Z,11.28
2019-05-11T00:43:20.382Z,15.38
2019-05-11T01:13:23.014Z,19.60
2019-05-11T01:43:25.600Z,12.23
2019-05-11T02:13:28.208Z,11.90
2019-05-11T02:43:30.825Z,13.00
2019-05-11T03:13:36.409Z,16.20
2019-05-11T03:43:39.079Z,13.25
2019-05-11T04:13:41.677Z,17.17
2019-05-11T04:43:44.277Z,18.62
2019-05-11T05:13:46.911Z,14.43
2019-05-11T05:43:49.516Z,16.95
2019-05-11T06:13:52.222Z,17.05
2019-05-11T06:44:01.655Z,17.15
2019-05-11T07:13:59.169Z,11.57
2019-05-11T07:44:01.749Z,9.78
2019-05-11T08:14:07.823Z,11.78
2019-05-11T08:44:10.494Z,9.73
2019-05-11T09:14:13.088Z,7.62
2019-05-11T09:44:18.045Z,7.08
2019-05-11T10:14:22.898Z,7.58
2019-05-11T10:44:27.925Z,5.85
2019-05-11T11:14:29.768Z,3.10
2019-05-11T11:44:32.730Z,3.87
2019-05-11T12:14:35.341Z,4.08
2019-05-11T12:44:38.789Z,4.75
2019-05-11T13:14:41.633Z,3.02
2019-05-11T13:44:44.260Z,2.50
2019-05-11T14:14:48.115Z,3.17
2019-05-11T14:44:50.818Z,7.90
2019-05-11T15:14:53.425Z,6.78
2019-05-11T15:44:56.052Z,6.50
2019-05-11T16:14:58.691Z,9.80
2019-05-11T16:45:01.308Z,9.23
2019-05-11T17:15:08.830Z,16.97
2019-05-11T17:45:12.149Z,19.23
2019-05-11T18:15:14.826Z,25.75
2019-05-11T18:45:18.875Z,25.05
2019-05-11T19:15:21.697Z,29.60
2019-05-11T19:45:25.103Z,35.65
2019-05-11T20:15:27.712Z,27.40
2019-05-11T20:45:30.357Z,30.48
2019-05-11T21:15:33.045Z,22.62
2019-05-11T21:45:38.293Z,18.70
2019-05-11T22:15:39.920Z,19.80
2019-05-11T22:45:42.540Z,19.92
2019-05-11T23:15:47.649Z,24.10
2019-05-11T23:45:49.456Z,31.15
